< Typhoon 202212 2022 Season Typhoon 202214 >
Typhoon 202213 (MERBOK)
General InformationTrack Information on Google MapsDetailed Wind InformationForecast History on Google MapsAccess Analytics MapList of All Images || NewsDisaster Info.JMA Disaster Info. XMLWeblogTrackbackTyphoon FrontTwiphoonTyphoon Now!Typhoon ImaginationResourceGoogle EarthGE AnimationAtom FeedGeoJSON
Detalied Best Track (Time Zone = UTC)
Year Month Day Hour Lat. Long. Pressure (hPa) Wind (kt) Class Image Chart
2022 9 11 06 20.9 159.8 1000 30 2 Image Chart
2022 9 11 09 20.9 160.2 1000 30 2 Image Chart
2022 9 11 12 20.8 160.3 1000 30 2 Image Chart
2022 9 11 15 21.0 160.7 1000 30 2 Image Chart
2022 9 11 18 21.2 161.0 1000 30 2 Image Chart
2022 9 11 21 21.4 161.4 1000 30 2 Image Chart
2022 9 12 00 21.2 161.3 998 35 3 Image Chart
2022 9 12 03 21.6 161.7 998 35 3 Image Chart
2022 9 12 06 21.8 162.0 996 40 3 Image Chart
2022 9 12 09 22.1 162.3 996 40 3 Image Chart
2022 9 12 12 22.7 162.7 990 50 4 Image Chart
2022 9 12 15 23.1 162.8 990 50 4 Image Chart
2022 9 12 18 23.2 162.9 985 55 4 Image Chart
2022 9 12 21 23.5 163.3 985 55 4 Image Chart
2022 9 13 00 23.9 163.3 985 55 4 Image Chart
2022 9 13 03 24.4 163.1 985 55 4 Image Chart
2022 9 13 06 24.8 163.1 985 55 4 Image Chart
2022 9 13 09 25.2 163.2 980 60 4 Image Chart
2022 9 13 12 25.9 163.0 980 60 4 Image Chart
2022 9 13 15 26.4 162.6 980 60 4 Image Chart
2022 9 13 18 26.5 162.2 970 70 5 Image Chart
2022 9 13 21 27.6 162.1 970 70 5 Image Chart
2022 9 14 00 27.9 162.2 970 70 5 Image Chart
2022 9 14 03 29.0 162.0 970 70 5 Image Chart
2022 9 14 06 29.9 162.0 970 70 5 Image Chart
2022 9 14 09 30.9 162.0 970 70 5 Image Chart
2022 9 14 12 31.8 161.9 970 70 5 Image Chart
2022 9 14 15 32.6 161.8 970 70 5 Image Chart
2022 9 14 18 33.6 162.2 965 70 5 Image Chart
2022 9 14 21 35.1 163.1 965 70 5 Image Chart
2022 9 15 00 36.4 164.1 965 70 5 Image Chart
2022 9 15 03 38.3 165.3 965 70 5 Image Chart
2022 9 15 06 41.0 166.0 960 70 6 Image Chart
Japan Meteorological Agency Best Track Data | Correction Date : 2022-09-15
< Typhoon 202212 2022 Season Typhoon 202214 >

Help